Andrews, North Carolina
Current Conditions -  °F | °C
As of 7:55 PM on Sunday 23 Nov 2014 (Local Time) from KRHP Reporting Station
Overcast Overcast  
Wind Chill: 60°   Ceiling: 3900
Heat Index: 60°   Visibility: 10mi
Dew Point: 53°   Wind: 13mph
Humidity: 78%   Direction: 230°SW
Pressure: 29.67"   Gusts: NA
Location:  35.2°N, 83.82°W
Report Text: KRHP 240055Z AUTO 23011KT 10SM SCT033 OVC039 15/12 A2967 RMK AO2 T01530115
Loading
Personal Weather Stations






























Interactive Weather Map New forecast layout! Learn more

10-Day Weather Forecast

Advertisements
Track Severe Weather on mobile